createdAt,value
2022-11-10T00:00:14.623Z,93618.75
2022-11-10T00:01:47.456Z,93616.88
2022-11-10T00:03:19.463Z,93620.91
2022-11-10T00:04:51.273Z,93609.41
2022-11-10T00:06:23.035Z,93624.63
2022-11-10T00:07:54.858Z,93623.56
2022-11-10T00:09:26.673Z,93613.94
2022-11-10T00:10:58.230Z,93623.81
2022-11-10T00:12:30.989Z,93623.03
2022-11-10T00:14:21.529Z,93619.28
2022-11-10T00:16:11.790Z,93609.41
2022-11-10T00:17:43.636Z,93607.81
2022-11-10T00:19:15.224Z,93613.66
2022-11-10T00:20:46.918Z,93614.47
2022-11-10T00:22:18.635Z,93610.97
2022-11-10T00:23:50.174Z,93607.81
2022-11-10T00:25:21.779Z,93612.34
2022-11-10T00:26:53.520Z,93615.56
2022-11-10T00:28:25.174Z,93611.78
2022-11-10T00:29:56.966Z,93612.34
2022-11-10T00:31:28.797Z,93612.59
2022-11-10T00:33:00.363Z,93611.50
2022-11-10T00:34:32.028Z,93622.44
2022-11-10T00:36:03.740Z,93616.06
2022-11-10T00:37:35.351Z,93621.34
2022-11-10T00:39:07.363Z,93618.94
2022-11-10T00:40:39.319Z,93615.22
2022-11-10T00:42:11.044Z,93615.47
2022-11-10T00:43:42.866Z,93613.06
2022-11-10T00:45:14.944Z,93611.44
2022-11-10T00:46:46.883Z,93607.97
2022-11-10T00:48:18.809Z,93613.81
2022-11-10T00:49:50.579Z,93606.06
2022-11-10T00:51:28.672Z,93608.44
2022-11-10T00:53:00.339Z,93602.53
2022-11-10T00:54:32.173Z,93599.06
2022-11-10T00:56:04.737Z,93603.09
2022-11-10T00:57:36.397Z,93600.69
2022-11-10T00:59:08.077Z,93600.69
2022-11-10T01:00:40.020Z,93603.59
2022-11-10T01:02:11.772Z,93599.06
2022-11-10T01:03:43.300Z,93590.53
2022-11-10T01:05:14.923Z,93589.47
2022-11-10T01:06:48.401Z,93598.53
2022-11-10T01:08:20.165Z,93591.59
2022-11-10T01:09:51.745Z,93601.72
2022-11-10T01:11:24.389Z,93594.75
2022-11-10T01:12:55.953Z,93592.91
2022-11-10T01:14:27.550Z,93599.03
2022-11-10T01:16:03.733Z,93597.97
2022-11-10T01:17:35.362Z,93595.25
2022-11-10T01:19:06.968Z,93588.84
2022-11-10T01:20:38.876Z,93587.50
2022-11-10T01:22:10.596Z,93591.50
2022-11-10T01:23:43.029Z,93587.72
2022-11-10T01:25:14.879Z,93591.19
2022-11-10T01:26:46.833Z,93589.84
2022-11-10T01:28:18.617Z,93588.75
2022-11-10T01:29:50.555Z,93583.91
2022-11-10T01:31:22.107Z,93581.78
2022-11-10T01:32:55.242Z,93597.53
2022-11-10T01:34:27.193Z,93578.06
2022-11-10T01:35:59.278Z,93579.66
2022-11-10T01:37:31.409Z,93584.44
2022-11-10T01:39:03.177Z,93589.22
2022-11-10T01:40:34.890Z,93593.50
2022-11-10T01:42:06.939Z,93592.97
2022-11-10T01:43:39.282Z,93593.22
2022-11-10T01:45:23.519Z,93589.19
2022-11-10T01:46:55.809Z,93591.84
2022-11-10T01:48:30.900Z,93604.91
2022-11-10T01:50:02.694Z,93595.53
2022-11-10T01:51:35.689Z,93597.13
2022-11-10T01:53:07.820Z,93596.56
2022-11-10T01:54:40.995Z,93596.50
2022-11-10T01:56:12.596Z,93595.44
2022-11-10T01:57:44.504Z,93597.81
2022-11-10T01:59:18.626Z,93601.28
2022-11-10T02:00:51.091Z,93597.81
2022-11-10T02:02:26.962Z,93598.59
2022-11-10T02:03:59.908Z,93600.47
2022-11-10T02:05:31.586Z,93597.31
2022-11-10T02:07:03.332Z,93599.97
2022-11-10T02:08:34.981Z,93602.63
2022-11-10T02:10:13.593Z,93602.31
2022-11-10T02:11:45.297Z,93598.84
2022-11-10T02:13:18.086Z,93597.50
2022-11-10T02:14:50.208Z,93600.41
2022-11-10T02:16:22.105Z,93597.75
2022-11-10T02:17:53.739Z,93598.03
2022-11-10T02:19:26.059Z,93601.75
2022-11-10T02:20:57.589Z,93592.66
2022-11-10T02:22:29.208Z,93589.13
2022-11-10T02:24:00.974Z,93593.59
2022-11-10T02:25:32.564Z,93600.22
2022-11-10T02:27:04.339Z,93608.75
2022-11-10T02:28:36.454Z,93607.13
2022-11-10T02:30:08.434Z,93609.25
2022-11-10T02:31:40.205Z,93607.88
2022-11-10T02:33:11.756Z,93608.13
2022-11-10T02:34:43.766Z,93612.06
2022-11-10T02:36:15.975Z,93613.31
2022-11-10T02:37:48.205Z,93614.09
2022-11-10T02:39:19.876Z,93612.47
2022-11-10T02:40:51.836Z,93616.19
2022-11-10T02:42:23.442Z,93612.41
2022-11-10T02:43:55.100Z,93620.94
2022-11-10T02:45:26.603Z,93617.22
2022-11-10T02:46:58.236Z,93620.94
2022-11-10T02:48:29.903Z,93617.72
2022-11-10T02:50:01.457Z,93620.38
2022-11-10T02:51:33.056Z,93626.75
2022-11-10T02:53:04.644Z,93634.47
2022-11-10T02:54:36.244Z,93634.00
2022-11-10T02:56:08.126Z,93630.81
2022-11-10T02:57:39.623Z,93637.00
2022-11-10T02:59:11.148Z,93634.09
2022-11-10T03:00:42.734Z,93630.91
2022-11-10T03:02:14.364Z,93626.94
2022-11-10T03:03:45.979Z,93624.84
2022-11-10T03:05:17.669Z,93632.00
2022-11-10T03:06:49.621Z,93627.50
2022-11-10T03:08:21.678Z,93625.88
2022-11-10T03:09:54.266Z,93625.88
2022-11-10T03:11:31.881Z,93628.06
2022-11-10T03:13:03.877Z,93627.84
2022-11-10T03:14:35.959Z,93628.13
2022-11-10T03:16:07.619Z,93633.25
2022-11-10T03:17:39.797Z,93632.25
2022-11-10T03:19:11.529Z,93633.66
2022-11-10T03:20:43.069Z,93643.56
2022-11-10T03:22:14.744Z,93635.59
2022-11-10T03:23:46.242Z,93640.44
2022-11-10T03:25:18.050Z,93636.72
2022-11-10T03:26:49.763Z,93636.47
2022-11-10T03:28:21.357Z,93641.56
2022-11-10T03:29:52.963Z,93646.97
2022-11-10T03:31:24.579Z,93639.28
2022-11-10T03:32:56.267Z,93639.53
2022-11-10T03:34:31.624Z,93635.00
2022-11-10T03:36:03.965Z,93642.25
2022-11-10T03:37:35.818Z,93639.31
2022-11-10T03:39:07.741Z,93640.38
2022-11-10T03:41:12.013Z,93639.31
2022-11-10T03:42:31.285Z,93640.38
2022-11-10T03:44:03.102Z,93643.84
2022-11-10T03:45:35.192Z,93637.19
2022-11-10T03:47:07.078Z,93640.41
2022-11-10T03:48:39.253Z,93643.88
2022-11-10T03:50:11.404Z,93647.34
2022-11-10T03:51:43.539Z,93648.69
2022-11-10T03:53:15.252Z,93645.22
2022-11-10T03:54:46.785Z,93643.63
2022-11-10T03:56:18.462Z,93646.56
2022-11-10T03:57:50.413Z,93643.09
2022-11-10T03:59:22.093Z,93644.16
2022-11-10T04:00:54.828Z,93643.09
2022-11-10T04:02:26.471Z,93643.91
2022-11-10T04:03:58.040Z,93636.97
2022-11-10T04:05:48.517Z,93645.22
2022-11-10T04:07:38.824Z,93639.09
2022-11-10T04:09:10.514Z,93643.09
2022-11-10T04:10:42.150Z,93644.19
2022-11-10T04:12:32.337Z,93645.28
2022-11-10T04:14:22.835Z,93647.44
2022-11-10T04:15:54.826Z,93646.91
2022-11-10T04:17:26.373Z,93648.00
2022-11-10T04:18:57.974Z,93651.47
2022-11-10T04:20:30.154Z,93637.38
2022-11-10T04:22:01.759Z,93647.81
2022-11-10T04:23:36.605Z,93643.28
2022-11-10T04:25:08.405Z,93651.53
2022-11-10T04:26:40.887Z,93647.81
2022-11-10T04:28:12.544Z,93650.22
2022-11-10T04:29:44.105Z,93653.72
2022-11-10T04:31:16.317Z,93642.53
2022-11-10T04:32:48.575Z,93651.88
2022-11-10T04:34:20.533Z,93647.91
2022-11-10T04:35:52.086Z,93647.91
2022-11-10T04:37:23.594Z,93643.66
2022-11-10T04:38:58.230Z,93646.09
2022-11-10T04:40:30.128Z,93654.09
2022-11-10T04:42:03.047Z,93649.00
2022-11-10T04:43:34.807Z,93644.97
2022-11-10T04:45:06.919Z,93644.97
2022-11-10T04:46:40.476Z,93647.66
2022-11-10T04:48:12.226Z,93653.78
2022-11-10T04:49:43.881Z,93651.41
2022-11-10T04:51:15.811Z,93656.50
2022-11-10T04:52:47.386Z,93652.22
2022-11-10T04:54:18.852Z,93658.38
2022-11-10T04:55:50.403Z,93653.03
2022-11-10T04:57:21.994Z,93665.03
2022-11-10T04:58:53.852Z,93664.25
2022-11-10T05:00:25.966Z,93662.09
2022-11-10T05:01:57.571Z,93662.09
2022-11-10T05:03:29.369Z,93661.84
2022-11-10T05:05:00.950Z,93666.13
2022-11-10T05:06:32.538Z,93667.19
2022-11-10T05:08:04.143Z,93659.97
2022-11-10T05:09:35.630Z,93658.66
2022-11-10T05:11:07.268Z,93661.63
2022-11-10T05:12:38.817Z,93659.47
2022-11-10T05:14:10.454Z,93666.16
2022-11-10T05:15:42.320Z,93658.44
2022-11-10T05:17:13.915Z,93666.47
2022-11-10T05:18:45.475Z,93664.88
2022-11-10T05:20:18.118Z,93671.31
2022-11-10T05:21:49.797Z,93668.66
2022-11-10T05:23:39.838Z,93669.75
2022-11-10T05:25:11.517Z,93663.91
2022-11-10T05:26:43.159Z,93667.63
2022-11-10T05:28:16.674Z,93659.91
2022-11-10T05:29:48.277Z,93655.91
2022-11-10T05:31:19.872Z,93663.41
2022-11-10T05:32:51.490Z,93662.06
2022-11-10T05:34:23.342Z,93663.44
2022-11-10T05:35:54.959Z,93658.63
2022-11-10T05:37:26.679Z,93666.09
2022-11-10T05:38:58.356Z,93664.50
2022-11-10T05:40:30.023Z,93669.31
2022-11-10T05:42:01.696Z,93669.06
2022-11-10T05:43:33.267Z,93663.44
2022-11-10T05:45:05.235Z,93669.06
2022-11-10T05:46:36.877Z,93666.41
2022-11-10T05:48:08.604Z,93669.88
2022-11-10T05:49:40.209Z,93676.31
2022-11-10T05:51:11.914Z,93682.69
2022-11-10T05:52:49.910Z,93677.34
2022-11-10T05:54:21.927Z,93682.44
2022-11-10T05:55:53.674Z,93684.84
2022-11-10T05:57:25.280Z,93681.66
2022-11-10T05:58:56.999Z,93685.44
2022-11-10T06:00:29.331Z,93689.69
2022-11-10T06:02:00.910Z,93696.91
2022-11-10T06:03:32.843Z,93695.06
2022-11-10T06:05:04.551Z,93695.31
2022-11-10T06:06:36.260Z,93700.41
2022-11-10T06:08:08.054Z,93692.88
2022-11-10T06:09:40.235Z,93693.16
2022-11-10T06:11:11.917Z,93695.56
2022-11-10T06:12:43.628Z,93700.13
2022-11-10T06:14:15.277Z,93706.28
2022-11-10T06:15:50.349Z,93702.53
2022-11-10T06:17:22.560Z,93701.72
2022-11-10T06:18:54.219Z,93708.97
2022-11-10T06:20:25.822Z,93710.28
2022-11-10T06:22:03.584Z,93710.00
2022-11-10T06:23:38.707Z,93710.28
2022-11-10T06:25:10.672Z,93710.00
2022-11-10T06:26:42.499Z,93709.47
2022-11-10T06:28:15.103Z,93714.28
2022-11-10T06:29:46.693Z,93717.50
2022-11-10T06:31:19.706Z,93721.50
2022-11-10T06:32:51.305Z,93725.53
2022-11-10T06:34:22.856Z,93721.25
2022-11-10T06:35:54.560Z,93730.06
2022-11-10T06:37:26.242Z,93730.31
2022-11-10T06:38:57.742Z,93720.41
2022-11-10T06:40:29.693Z,93724.94
2022-11-10T06:42:01.312Z,93731.63
2022-11-10T06:43:32.891Z,93731.34
2022-11-10T06:45:04.682Z,93726.22
2022-11-10T06:46:41.160Z,93735.06
2022-11-10T06:48:14.367Z,93738.25
2022-11-10T06:49:46.037Z,93736.38
2022-11-10T06:51:18.290Z,93739.09
2022-11-10T06:52:56.224Z,93736.94
2022-11-10T06:54:27.960Z,93738.78
2022-11-10T06:55:59.473Z,93734.75
2022-11-10T06:57:31.036Z,93741.19
2022-11-10T06:59:02.869Z,93742.00
2022-11-10T07:00:34.636Z,93750.31
2022-11-10T07:02:06.333Z,93748.66
2022-11-10T07:03:41.363Z,93751.88
2022-11-10T07:05:24.973Z,93754.50
2022-11-10T07:06:56.638Z,93750.50
2022-11-10T07:08:28.374Z,93754.75
2022-11-10T07:10:05.693Z,93755.28
2022-11-10T07:11:38.576Z,93753.94
2022-11-10T07:13:10.570Z,93758.81
2022-11-10T07:14:42.145Z,93756.91
2022-11-10T07:16:13.971Z,93763.63
2022-11-10T07:17:45.587Z,93759.88
2022-11-10T07:19:17.337Z,93764.44
2022-11-10T07:20:49.149Z,93769.53
2022-11-10T07:22:20.791Z,93764.97
2022-11-10T07:23:52.275Z,93759.88
2022-11-10T07:25:24.096Z,93758.75
2022-11-10T07:26:56.114Z,93765.72
2022-11-10T07:28:28.573Z,93768.09
2022-11-10T07:30:00.298Z,93767.50
2022-11-10T07:31:32.302Z,93771.00
2022-11-10T07:33:04.966Z,93767.19
2022-11-10T07:34:36.536Z,93769.06
2022-11-10T07:36:08.369Z,93764.22
2022-11-10T07:37:39.962Z,93774.66
2022-11-10T07:39:11.972Z,93766.06
2022-11-10T07:40:43.589Z,93765.25
2022-11-10T07:42:15.232Z,93769.84
2022-11-10T07:43:46.712Z,93766.63
2022-11-10T07:45:18.446Z,93768.50
2022-11-10T07:46:49.953Z,93763.66
2022-11-10T07:48:21.588Z,93766.63
2022-11-10T07:49:53.264Z,93763.91
2022-11-10T07:51:27.072Z,93763.13
2022-11-10T07:53:08.036Z,93762.06
2022-11-10T07:54:39.569Z,93766.06
2022-11-10T07:56:11.150Z,93768.25
2022-11-10T07:57:42.844Z,93773.88
2022-11-10T07:59:14.472Z,93765.25
2022-11-10T08:00:47.442Z,93765.25
2022-11-10T08:02:19.089Z,93765.25
2022-11-10T08:03:50.706Z,93769.84
2022-11-10T08:05:22.586Z,93770.13
2022-11-10T08:06:54.995Z,93762.63
2022-11-10T08:08:26.724Z,93767.19
2022-11-10T08:09:58.518Z,93767.72
2022-11-10T08:11:30.244Z,93774.44
2022-11-10T08:13:02.635Z,93773.34
2022-11-10T08:14:34.466Z,93774.16
2022-11-10T08:16:06.274Z,93772.28
2022-11-10T08:17:37.959Z,93775.00
2022-11-10T08:19:09.562Z,93777.16
2022-11-10T08:20:42.599Z,93776.38
2022-11-10T08:22:14.591Z,93776.63
2022-11-10T08:23:46.316Z,93782.78
2022-11-10T08:25:18.197Z,93774.75
2022-11-10T08:26:50.231Z,93782.28
2022-11-10T08:28:22.151Z,93783.09
2022-11-10T08:29:53.689Z,93786.31
2022-11-10T08:31:25.409Z,93790.59
2022-11-10T08:32:57.595Z,93786.84
2022-11-10T08:34:29.249Z,93785.53
2022-11-10T08:36:01.005Z,93794.09
2022-11-10T08:37:32.509Z,93791.97
2022-11-10T08:39:04.351Z,93799.47
2022-11-10T08:40:36.024Z,93797.31
2022-11-10T08:42:07.577Z,93792.50
2022-11-10T08:43:39.190Z,93785.78
2022-11-10T08:45:14.133Z,93786.84
2022-11-10T08:46:47.148Z,93792.72
2022-11-10T08:48:19.584Z,93795.13
2022-11-10T08:49:51.381Z,93788.41
2022-11-10T08:51:23.006Z,93788.63
2022-11-10T08:52:54.714Z,93796.41
2022-11-10T08:54:26.321Z,93790.50
2022-11-10T08:56:00.639Z,93791.28
2022-11-10T08:57:32.157Z,93798.47
2022-11-10T08:59:03.739Z,93791.22
2022-11-10T09:00:35.500Z,93794.19
2022-11-10T09:02:08.890Z,93799.06
2022-11-10T09:03:40.715Z,93792.09
2022-11-10T09:05:12.385Z,93803.63
2022-11-10T09:06:43.998Z,93795.53
2022-11-10T09:08:15.696Z,93801.16
2022-11-10T09:10:06.080Z,93804.28
2022-11-10T09:11:38.766Z,93798.06
2022-11-10T09:13:11.874Z,93798.28
2022-11-10T09:14:43.912Z,93794.78
2022-11-10T09:16:15.748Z,93790.19
2022-11-10T09:17:47.547Z,93793.63
2022-11-10T09:19:20.252Z,93797.09
2022-11-10T09:20:52.338Z,93795.41
2022-11-10T09:22:24.275Z,93793.72
2022-11-10T09:23:55.857Z,93796.13
2022-11-10T09:25:27.661Z,93799.31
2022-11-10T09:26:59.298Z,93797.38
2022-11-10T09:28:31.212Z,93793.38
2022-11-10T09:30:03.336Z,93794.69
2022-11-10T09:31:35.113Z,93799.78
2022-11-10T09:33:06.784Z,93790.66
2022-11-10T09:34:39.182Z,93799.50
2022-11-10T09:36:10.845Z,93792.19
2022-11-10T09:37:42.492Z,93795.41
2022-11-10T09:39:15.408Z,93791.88
2022-11-10T09:40:50.939Z,93801.53
2022-11-10T09:42:35.557Z,93795.13
2022-11-10T09:44:23.279Z,93793.53
2022-11-10T09:45:55.752Z,93789.19
2022-11-10T09:48:01.313Z,93795.94
2022-11-10T09:49:35.262Z,93786.44
2022-11-10T09:51:07.073Z,93787.50
2022-11-10T09:52:39.131Z,93789.38
2022-11-10T09:54:19.567Z,93790.69
2022-11-10T09:55:55.309Z,93786.41
2022-11-10T09:57:27.659Z,93792.88
2022-11-10T09:58:59.484Z,93789.91
2022-11-10T10:00:31.449Z,93785.84
2022-11-10T10:02:31.359Z,93791.72
2022-11-10T10:04:26.419Z,93793.94
2022-11-10T10:06:02.772Z,93789.50
2022-11-10T10:07:56.849Z,93791.91
2022-11-10T10:09:38.081Z,93790.28
2022-11-10T10:11:09.801Z,93784.56
2022-11-10T10:12:41.900Z,93786.16
2022-11-10T10:14:33.806Z,93788.53
2022-11-10T10:16:23.935Z,93785.13
2022-11-10T10:17:55.690Z,93786.03
2022-11-10T10:19:27.375Z,93793.22
2022-11-10T10:21:08.411Z,93786.91
2022-11-10T10:23:00.570Z,93780.31
2022-11-10T10:24:33.831Z,93790.09
2022-11-10T10:26:05.477Z,93792.94
2022-11-10T10:27:37.034Z,93791.50
2022-11-10T10:29:10.249Z,93787.66
2022-11-10T10:30:41.837Z,93792.34
2022-11-10T10:32:13.569Z,93786.50
2022-11-10T10:33:45.570Z,93787.34
2022-11-10T10:35:19.327Z,93781.22
2022-11-10T10:36:51.033Z,93781.00
2022-11-10T10:38:22.895Z,93783.38
2022-11-10T10:39:55.598Z,93773.94
2022-11-10T10:41:28.119Z,93774.66
2022-11-10T10:42:59.997Z,93769.28
2022-11-10T10:44:31.667Z,93777.28
2022-11-10T10:46:07.488Z,93782.28
2022-11-10T10:47:39.671Z,93776.28
2022-11-10T10:49:33.190Z,93773.47
2022-11-10T10:51:05.873Z,93769.47
2022-11-10T10:52:37.653Z,93768.69
2022-11-10T10:54:24.506Z,93773.25
2022-11-10T10:56:06.379Z,93769.75
2022-11-10T10:57:38.079Z,93757.16
2022-11-10T10:59:10.149Z,93761.09
2022-11-10T11:00:44.127Z,93759.34
2022-11-10T11:02:30.997Z,93755.88
2022-11-10T11:04:05.572Z,93758.53
2022-11-10T11:05:37.834Z,93758.78
2022-11-10T11:07:19.699Z,93754.38
2022-11-10T11:09:01.740Z,93754.72
2022-11-10T11:10:34.330Z,93751.72
2022-11-10T11:12:07.574Z,93753.38
2022-11-10T11:13:39.272Z,93754.66
2022-11-10T11:15:12.164Z,93747.94
2022-11-10T11:17:07.281Z,93751.97
2022-11-10T11:18:39.726Z,93752.50
2022-11-10T11:20:15.614Z,93749.16
2022-11-10T11:21:47.326Z,93739.66
2022-11-10T11:23:19.082Z,93740.66
2022-11-10T11:24:57.033Z,93732.84
2022-11-10T11:26:34.921Z,93735.91
2022-11-10T11:28:19.882Z,93726.69
2022-11-10T11:30:07.059Z,93726.34
2022-11-10T11:31:57.540Z,93728.59
2022-11-10T11:33:58.216Z,93732.25
2022-11-10T11:35:48.616Z,93727.78
2022-11-10T11:37:33.763Z,93724.75
2022-11-10T11:39:11.406Z,93720.59
2022-11-10T11:40:47.477Z,93719.78
2022-11-10T11:42:19.008Z,93710.78
2022-11-10T11:44:09.591Z,93713.44
2022-11-10T11:45:55.904Z,93717.50
2022-11-10T11:47:39.637Z,93716.72
2022-11-10T11:49:30.945Z,93718.66
2022-11-10T11:51:14.424Z,93721.38
2022-11-10T11:53:04.876Z,93711.19
2022-11-10T11:54:45.400Z,93714.78
2022-11-10T11:56:22.839Z,93709.47
2022-11-10T11:58:06.379Z,93719.09
2022-11-10T11:59:58.205Z,93713.91
2022-11-10T12:01:29.824Z,93708.16
2022-11-10T12:03:14.020Z,93717.59
2022-11-10T12:04:46.107Z,93719.03
2022-11-10T12:06:23.519Z,93716.47
2022-11-10T12:07:56.008Z,93712.31
2022-11-10T12:09:30.693Z,93716.00
2022-11-10T12:11:08.070Z,93716.59
2022-11-10T12:12:58.298Z,93711.63
2022-11-10T12:14:30.150Z,93718.09
2022-11-10T12:16:11.062Z,93714.13
2022-11-10T12:17:54.862Z,93717.22
2022-11-10T12:19:48.506Z,93710.84
2022-11-10T12:21:24.645Z,93718.38
2022-11-10T12:23:07.506Z,93720.91
2022-11-10T12:24:48.605Z,93718.31
2022-11-10T12:26:39.430Z,93716.34
2022-11-10T12:28:16.373Z,93723.44
2022-11-10T12:29:58.718Z,93719.81
2022-11-10T12:31:30.847Z,93717.59
2022-11-10T12:33:04.580Z,93710.56
2022-11-10T12:34:44.326Z,93719.41
2022-11-10T12:36:16.870Z,93721.19
2022-11-10T12:37:56.147Z,93716.69
2022-11-10T12:39:31.000Z,93728.47
2022-11-10T12:41:03.253Z,93719.81
2022-11-10T12:42:34.924Z,93718.28
2022-11-10T12:44:08.367Z,93717.72
2022-11-10T12:45:41.259Z,93714.47
2022-11-10T12:47:14.648Z,93719.97
2022-11-10T12:48:55.348Z,93724.06
2022-11-10T12:50:27.174Z,93723.50
2022-11-10T12:52:21.910Z,93719.19
2022-11-10T12:53:53.649Z,93720.63
2022-11-10T12:55:49.109Z,93716.97
2022-11-10T12:57:22.067Z,93716.06
2022-11-10T12:59:13.007Z,93717.19
2022-11-10T13:01:05.206Z,93724.66
2022-11-10T13:02:43.958Z,93724.75
2022-11-10T13:04:15.743Z,93721.56
2022-11-10T13:05:47.977Z,93721.50
2022-11-10T13:07:19.708Z,93725.22
2022-11-10T13:08:51.815Z,93725.22
2022-11-10T13:10:24.077Z,93732.59
2022-11-10T13:12:10.921Z,93731.22
2022-11-10T13:13:53.157Z,93728.94
2022-11-10T13:15:39.276Z,93734.13
2022-11-10T13:17:26.217Z,93725.41
2022-11-10T13:18:57.937Z,93737.28
2022-11-10T13:20:42.027Z,93732.88
2022-11-10T13:22:28.473Z,93730.44
2022-11-10T13:24:03.221Z,93735.31
2022-11-10T13:25:37.854Z,93730.84
2022-11-10T13:27:32.817Z,93732.44
2022-11-10T13:29:04.513Z,93737.72
2022-11-10T13:30:43.815Z,93740.94
2022-11-10T13:32:15.792Z,93732.75
2022-11-10T13:34:03.904Z,93739.47
2022-11-10T13:35:38.509Z,93742.28
2022-11-10T13:37:25.676Z,93746.16
2022-11-10T13:38:57.492Z,93743.56
2022-11-10T13:40:31.175Z,93740.22
2022-11-10T13:42:03.525Z,93746.03
2022-11-10T13:43:35.280Z,93741.56
2022-11-10T13:45:25.380Z,93746.97
2022-11-10T13:46:57.226Z,93742.06
2022-11-10T13:48:35.203Z,93738.97
2022-11-10T13:50:21.873Z,93738.78
2022-11-10T13:52:06.558Z,93741.34
2022-11-10T13:53:38.745Z,93738.97
2022-11-10T13:55:25.628Z,93751.56
2022-11-10T13:57:04.929Z,93741.63
2022-11-10T13:58:36.924Z,93746.84
2022-11-10T14:00:15.018Z,93752.19
2022-11-10T14:01:47.048Z,93755.47
2022-11-10T14:03:53.525Z,93747.31
2022-11-10T14:05:48.826Z,93746.84
2022-11-10T14:07:20.474Z,93746.84
2022-11-10T14:08:55.520Z,93744.03
2022-11-10T14:10:33.447Z,93751.56
2022-11-10T14:12:23.765Z,93754.38
2022-11-10T14:14:14.193Z,93752.97
2022-11-10T14:15:46.420Z,93748.38
2022-11-10T14:17:19.466Z,93757.09
2022-11-10T14:18:51.049Z,93751.56
2022-11-10T14:20:55.298Z,93752.25
2022-11-10T14:22:42.380Z,93753.75
2022-11-10T14:24:19.911Z,93752.66
2022-11-10T14:25:54.364Z,93749.19
2022-11-10T14:27:27.001Z,93750.34
2022-11-10T14:29:19.053Z,93756.31
2022-11-10T14:30:51.153Z,93752.03
2022-11-10T14:32:23.239Z,93749.81
2022-11-10T14:33:58.022Z,93753.84
2022-11-10T14:35:30.430Z,93759.44
2022-11-10T14:37:02.320Z,93759.94
2022-11-10T14:38:35.857Z,93756.91
2022-11-10T14:40:15.949Z,93758.81
2022-11-10T14:41:47.885Z,93761.41
2022-11-10T14:43:29.881Z,93761.75
2022-11-10T14:45:08.566Z,93749.94
2022-11-10T14:46:40.104Z,93762.88
2022-11-10T14:48:22.867Z,93756.53
2022-11-10T14:50:13.025Z,93757.47
2022-11-10T14:51:44.774Z,93766.53
2022-11-10T14:53:16.584Z,93762.81
2022-11-10T14:54:48.515Z,93768.53
2022-11-10T14:56:30.352Z,93763.91
2022-11-10T14:58:16.471Z,93775.66
2022-11-10T14:59:48.102Z,93774.66
2022-11-10T15:01:35.677Z,93768.56
2022-11-10T15:03:07.781Z,93779.47
2022-11-10T15:04:39.471Z,93772.75
2022-11-10T15:06:11.543Z,93776.81
2022-11-10T15:07:43.131Z,93777.69
2022-11-10T15:09:15.347Z,93772.03
2022-11-10T15:10:48.038Z,93771.97
2022-11-10T15:12:20.512Z,93773.22
2022-11-10T15:13:52.615Z,93779.66
2022-11-10T15:15:24.224Z,93779.91
2022-11-10T15:17:06.260Z,93786.97
2022-11-10T15:18:38.011Z,93783.72
2022-11-10T15:20:27.832Z,93783.88
2022-11-10T15:22:11.775Z,93778.16
2022-11-10T15:23:44.285Z,93787.44
2022-11-10T15:25:16.977Z,93786.56
2022-11-10T15:26:48.796Z,93795.97
2022-11-10T15:28:23.452Z,93800.25
2022-11-10T15:29:56.073Z,93795.28
2022-11-10T15:31:28.446Z,93805.34
2022-11-10T15:33:02.453Z,93807.88
2022-11-10T15:34:42.128Z,93802.53
2022-11-10T15:36:19.777Z,93806.22
2022-11-10T15:37:58.193Z,93804.53
2022-11-10T15:39:30.408Z,93814.56
2022-11-10T15:41:27.434Z,93812.00
2022-11-10T15:43:18.163Z,93815.34
2022-11-10T15:44:49.825Z,93815.94
2022-11-10T15:46:22.329Z,93815.00
2022-11-10T15:47:53.996Z,93816.22
2022-11-10T15:49:26.950Z,93814.00
2022-11-10T15:50:59.207Z,93816.03
2022-11-10T15:52:30.898Z,93820.47
2022-11-10T15:54:02.517Z,93820.91
2022-11-10T15:55:35.673Z,93825.59
2022-11-10T15:57:14.705Z,93828.63
2022-11-10T15:58:47.246Z,93827.91
2022-11-10T16:00:19.089Z,93828.75
2022-11-10T16:01:50.932Z,93825.63
2022-11-10T16:03:22.956Z,93822.78
2022-11-10T16:04:59.562Z,93829.31
2022-11-10T16:06:32.592Z,93834.00
2022-11-10T16:08:05.632Z,93832.97
2022-11-10T16:09:37.317Z,93831.69
2022-11-10T16:11:19.845Z,93829.00
2022-11-10T16:12:51.415Z,93828.75
2022-11-10T16:14:23.181Z,93827.16
2022-11-10T16:15:54.933Z,93830.66
2022-11-10T16:17:26.669Z,93834.66
2022-11-10T16:18:58.361Z,93831.97
2022-11-10T16:20:30.178Z,93843.75
2022-11-10T16:22:01.858Z,93833.50
2022-11-10T16:23:33.584Z,93838.25
2022-11-10T16:25:05.613Z,93834.97
2022-11-10T16:26:37.553Z,93842.47
2022-11-10T16:28:10.637Z,93844.09
2022-11-10T16:29:42.320Z,93841.13
2022-11-10T16:31:14.463Z,93836.28
2022-11-10T16:32:46.147Z,93842.78
2022-11-10T16:34:17.714Z,93849.03
2022-11-10T16:35:50.051Z,93848.78
2022-11-10T16:37:21.795Z,93846.44
2022-11-10T16:38:53.715Z,93851.09
2022-11-10T16:40:25.529Z,93851.88
2022-11-10T16:41:57.310Z,93856.19
2022-11-10T16:43:29.405Z,93856.22
2022-11-10T16:45:01.446Z,93861.69
2022-11-10T16:46:33.777Z,93861.72
2022-11-10T16:48:06.371Z,93856.69
2022-11-10T16:49:38.379Z,93862.91
2022-11-10T16:51:11.449Z,93875.31
2022-11-10T16:52:43.218Z,93874.25
2022-11-10T16:54:14.926Z,93875.09
2022-11-10T16:55:46.544Z,93876.25
2022-11-10T16:57:18.297Z,93873.88
2022-11-10T16:58:50.738Z,93876.63
2022-11-10T17:00:22.580Z,93876.63
2022-11-10T17:01:54.568Z,93884.69
2022-11-10T17:03:32.251Z,93878.44
2022-11-10T17:05:04.588Z,93886.22
2022-11-10T17:06:36.755Z,93884.13
2022-11-10T17:08:10.266Z,93886.84
2022-11-10T17:09:41.954Z,93889.81
2022-11-10T17:11:13.568Z,93887.41
2022-11-10T17:12:45.221Z,93890.09
2022-11-10T17:14:18.141Z,93895.72
2022-11-10T17:15:49.916Z,93883.69
2022-11-10T17:17:22.598Z,93890.16
2022-11-10T17:18:54.934Z,93893.19
2022-11-10T17:20:28.836Z,93887.84
2022-11-10T17:22:00.442Z,93893.78
2022-11-10T17:23:32.109Z,93893.53
2022-11-10T17:25:04.012Z,93888.16
2022-11-10T17:26:36.114Z,93891.69
2022-11-10T17:28:10.442Z,93892.75
2022-11-10T17:29:42.761Z,93897.31
2022-11-10T17:31:16.062Z,93897.03
2022-11-10T17:33:05.121Z,93895.16
2022-11-10T17:34:37.541Z,93886.84
2022-11-10T17:36:18.642Z,93884.69
2022-11-10T17:37:51.898Z,93898.38
2022-11-10T17:39:23.787Z,93890.88
2022-11-10T17:40:56.247Z,93891.47
2022-11-10T17:42:28.166Z,93898.47
2022-11-10T17:43:59.870Z,93899.53
2022-11-10T17:45:31.794Z,93903.81
2022-11-10T17:47:03.662Z,93897.94
2022-11-10T17:48:35.427Z,93891.50
2022-11-10T17:50:07.514Z,93898.53
2022-11-10T17:51:39.494Z,93896.13
2022-11-10T17:53:21.369Z,93898.31
2022-11-10T17:54:53.234Z,93898.06
2022-11-10T17:56:24.816Z,93894.28
2022-11-10T17:57:57.527Z,93901.03
2022-11-10T17:59:29.146Z,93900.22
2022-11-10T18:01:01.549Z,93898.59
2022-11-10T18:02:33.146Z,93893.78
2022-11-10T18:04:05.087Z,93900.25
2022-11-10T18:05:36.708Z,93903.72
2022-11-10T18:07:08.576Z,93907.22
2022-11-10T18:08:40.402Z,93902.94
2022-11-10T18:10:14.874Z,93902.97
2022-11-10T18:11:46.580Z,93904.84
2022-11-10T18:13:18.908Z,93904.06
2022-11-10T18:14:50.471Z,93911.59
2022-11-10T18:16:22.720Z,93915.63
2022-11-10T18:17:59.953Z,93910.53
2022-11-10T18:19:32.786Z,93908.66
2022-11-10T18:21:04.966Z,93921.25
2022-11-10T18:22:36.712Z,93918.00
2022-11-10T18:24:08.351Z,93922.03
2022-11-10T18:25:40.584Z,93924.44
2022-11-10T18:27:12.875Z,93921.25
2022-11-10T18:28:48.615Z,93930.66
2022-11-10T18:30:20.246Z,93927.75